NOTAM: Weather restrictions and delays at KEYW

Please be advised that weather at KEYW is currently below minimums for visual approaches. KEYW does not have an ILS approach, and GPS approaches have been removed. This means that ATC has no way to clear aircraft for approach.

Current weather:
KEYW 221613Z 14016G23KT 1SM RA BR BKN019 BKN020 OVC031 24/22 A3002 RMK AO2 P0010 T02440222

Forecast weather:
KEYW 221620Z 2216/2312 13016G26KT P6SM VCSH SCT015 BKN025
TEMPO 2216/2218 1SM +RA BKN015
FM222100 14014G22KT P6SM VCTS FEW020 SCT030CB OVC100
FM230200 17012G18KT 4SM SHRA BKN015 OVC030
PROB30 2302/2306 1SM +TSRA BKN008CB

This means there may be a break in weather between 2100z and 0200z, but it isnโ€™t a guarantee.

Recommended featured diversion airports are KTMB and KDAB.

29 Likes

๐Ÿ‘€ annnnnnnnd this is the perfect segway for clearance delivery. This just screams โ€œground stopsโ€ ๐Ÿ˜‚

25 Likes

Damn. Wish we could fly the Rnav to get in. Maybe one day.

Today has been really windy all around florida

Mission accepted ๐Ÿ˜Ž๐Ÿ˜Ž

Obviously, with safety at priority

1 Like

This topic was automatically closed 90 days after the last reply. New replies are no longer allowed.